createdAt,value
2018-09-10T00:00:10.876Z,1.93
2018-09-10T00:02:37.970Z,2.40
2018-09-10T00:05:05.061Z,2.27
2018-09-10T00:07:32.149Z,2.10
2018-09-10T00:09:59.320Z,2.40
2018-09-10T00:12:26.425Z,2.20
2018-09-10T00:14:53.794Z,1.90
2018-09-10T00:17:21.217Z,2.20
2018-09-10T00:19:48.552Z,2.30
2018-09-10T00:22:15.658Z,2.37
2018-09-10T00:24:42.860Z,2.13
2018-09-10T00:27:09.961Z,2.10
2018-09-10T00:29:37.065Z,2.17
2018-09-10T00:32:04.169Z,2.00
2018-09-10T00:34:31.276Z,2.00
2018-09-10T00:36:58.392Z,2.27
2018-09-10T00:39:25.496Z,1.90
2018-09-10T00:41:52.597Z,2.10
2018-09-10T00:44:19.762Z,2.33
2018-09-10T00:46:46.861Z,2.23
2018-09-10T00:49:13.949Z,1.80
2018-09-10T00:51:41.074Z,2.10
2018-09-10T00:54:08.174Z,2.20
2018-09-10T00:56:35.357Z,2.17
2018-09-10T00:59:02.449Z,2.23
2018-09-10T01:01:29.546Z,2.27
2018-09-10T01:03:56.646Z,2.10
2018-09-10T01:06:23.761Z,2.20
2018-09-10T01:08:50.850Z,2.20
2018-09-10T01:11:17.942Z,2.17
2018-09-10T01:13:45.055Z,1.93
2018-09-10T01:16:12.158Z,2.40
2018-09-10T01:18:39.434Z,2.00
2018-09-10T01:21:06.529Z,2.23
2018-09-10T01:23:33.642Z,2.07
2018-09-10T01:26:01.637Z,2.10
2018-09-10T01:28:28.739Z,2.00
2018-09-10T01:30:55.834Z,2.63
2018-09-10T01:33:28.420Z,2.10
2018-09-10T01:35:55.547Z,2.10
2018-09-10T01:38:22.663Z,2.27
2018-09-10T01:40:49.770Z,2.17
2018-09-10T01:43:16.874Z,2.17
2018-09-10T01:45:43.998Z,2.30
2018-09-10T01:48:11.311Z,2.00
2018-09-10T01:50:38.421Z,1.80
2018-09-10T01:53:05.513Z,2.17
2018-09-10T01:55:32.618Z,2.13
2018-09-10T01:57:59.705Z,2.17
2018-09-10T02:00:26.810Z,1.90
2018-09-10T02:02:54.223Z,2.10
2018-09-10T02:05:21.331Z,1.90
2018-09-10T02:07:48.853Z,1.97
2018-09-10T02:10:16.179Z,1.93
2018-09-10T02:12:43.296Z,2.10
2018-09-10T02:15:10.397Z,2.00
2018-09-10T02:17:37.518Z,1.97
2018-09-10T02:20:04.666Z,2.60
2018-09-10T02:22:31.761Z,1.93
2018-09-10T02:24:58.865Z,2.43
2018-09-10T02:27:25.990Z,2.13
2018-09-10T02:29:53.054Z,2.10
2018-09-10T02:32:20.176Z,2.10
2018-09-10T02:34:47.265Z,2.37
2018-09-10T02:37:14.378Z,2.03
2018-09-10T02:39:41.473Z,2.10
2018-09-10T02:42:08.586Z,2.10
2018-09-10T02:44:35.734Z,2.30
2018-09-10T02:47:02.862Z,2.10
2018-09-10T02:49:29.939Z,2.23
2018-09-10T02:51:57.045Z,2.20
2018-09-10T02:54:24.137Z,2.10
2018-09-10T02:56:51.539Z,2.63
2018-09-10T02:59:18.638Z,2.43
2018-09-10T03:01:45.751Z,2.40
2018-09-10T03:04:12.917Z,2.37
2018-09-10T03:06:40.035Z,2.30
2018-09-10T03:09:07.623Z,2.07
2018-09-10T03:11:34.724Z,2.10
2018-09-10T03:14:01.836Z,2.30
2018-09-10T03:16:28.938Z,2.33
2018-09-10T03:18:56.032Z,2.37
2018-09-10T03:21:23.121Z,2.23
2018-09-10T03:23:50.225Z,2.50
2018-09-10T03:26:17.345Z,2.20
2018-09-10T03:28:44.446Z,2.20
2018-09-10T03:31:11.573Z,2.23
2018-09-10T03:33:38.705Z,2.30
2018-09-10T03:36:05.865Z,2.00
2018-09-10T03:38:32.978Z,2.60
2018-09-10T03:41:00.079Z,2.13
2018-09-10T03:43:27.270Z,2.10
2018-09-10T03:45:54.366Z,2.10
2018-09-10T03:48:21.471Z,2.17
2018-09-10T03:50:48.565Z,2.20
2018-09-10T03:53:15.723Z,2.20
2018-09-10T03:55:42.814Z,2.40
2018-09-10T03:58:09.946Z,2.33
2018-09-10T04:00:37.050Z,2.17
2018-09-10T04:03:04.154Z,2.47
2018-09-10T04:05:31.256Z,1.90
2018-09-10T04:07:58.350Z,2.57
2018-09-10T04:10:25.444Z,2.30
2018-09-10T04:12:52.543Z,2.20
2018-09-10T04:15:19.637Z,2.20
2018-09-10T04:17:46.809Z,2.40
2018-09-10T04:20:13.918Z,2.23
2018-09-10T04:22:41.977Z,2.30
2018-09-10T04:25:09.081Z,2.40
2018-09-10T04:27:36.912Z,2.50
2018-09-10T04:30:05.053Z,2.17
2018-09-10T04:32:32.154Z,2.50
2018-09-10T04:34:59.261Z,2.40
2018-09-10T04:37:26.359Z,2.93
2018-09-10T04:39:53.446Z,2.47
2018-09-10T04:42:20.625Z,2.40
2018-09-10T04:44:47.661Z,2.20
2018-09-10T04:47:14.979Z,2.37
2018-09-10T04:49:42.153Z,2.20
2018-09-10T04:52:09.569Z,2.60
2018-09-10T04:54:36.673Z,2.47
2018-09-10T04:57:03.796Z,2.77
2018-09-10T04:59:31.004Z,2.40
2018-09-10T05:01:58.099Z,2.20
2018-09-10T05:04:25.251Z,2.30
2018-09-10T05:06:52.309Z,2.17
2018-09-10T05:09:19.396Z,2.90
2018-09-10T05:11:46.519Z,2.60
2018-09-10T05:14:13.610Z,2.63
2018-09-10T05:16:40.708Z,2.70
2018-09-10T05:19:07.894Z,2.57
2018-09-10T05:21:35.036Z,2.40
2018-09-10T05:24:02.165Z,2.40
2018-09-10T05:26:29.294Z,2.57
2018-09-10T05:28:56.439Z,2.20
2018-09-10T05:31:23.666Z,2.87
2018-09-10T05:33:50.758Z,2.40
2018-09-10T05:36:17.845Z,2.40
2018-09-10T05:38:44.950Z,2.47
2018-09-10T05:41:12.043Z,2.43
2018-09-10T05:43:39.145Z,2.43
2018-09-10T05:46:06.243Z,2.27
2018-09-10T05:48:33.349Z,2.50
2018-09-10T05:51:00.459Z,2.70
2018-09-10T05:53:27.617Z,2.50
2018-09-10T05:55:54.717Z,2.50
2018-09-10T05:58:21.818Z,2.40
2018-09-10T06:00:48.950Z,2.40
2018-09-10T06:03:16.036Z,2.67
2018-09-10T06:05:43.166Z,2.33
2018-09-10T06:08:10.261Z,2.57
2018-09-10T06:10:37.445Z,2.60
2018-09-10T06:13:04.523Z,2.17
2018-09-10T06:15:31.718Z,2.40
2018-09-10T06:17:58.808Z,2.70
2018-09-10T06:20:25.980Z,2.63
2018-09-10T06:22:54.066Z,2.60
2018-09-10T06:25:22.814Z,2.43
2018-09-10T06:27:51.208Z,2.30
2018-09-10T06:30:19.736Z,2.60
2018-09-10T06:32:47.069Z,2.70
2018-09-10T06:35:14.170Z,2.73
2018-09-10T06:37:41.282Z,2.50
2018-09-10T06:40:08.402Z,2.40
2018-09-10T06:42:35.502Z,2.90
2018-09-10T06:45:02.597Z,2.97
2018-09-10T06:47:29.701Z,2.30
2018-09-10T06:49:57.606Z,3.00
2018-09-10T06:52:24.701Z,2.80
2018-09-10T06:54:52.165Z,2.60
2018-09-10T06:57:19.255Z,2.57
2018-09-10T06:59:46.367Z,2.63
2018-09-10T07:02:13.528Z,2.93
2018-09-10T07:04:40.752Z,2.63
2018-09-10T07:07:07.870Z,2.87
2018-09-10T07:09:35.558Z,2.57
2018-09-10T07:12:02.950Z,2.50
2018-09-10T07:14:30.050Z,2.40
2018-09-10T07:16:57.137Z,2.90
2018-09-10T07:19:24.234Z,2.67
2018-09-10T07:21:51.382Z,3.00
2018-09-10T07:24:18.754Z,3.30
2018-09-10T07:26:45.917Z,3.03
2018-09-10T07:29:13.305Z,3.07
2018-09-10T07:31:40.394Z,3.07
2018-09-10T07:34:07.874Z,3.33
2018-09-10T07:36:34.978Z,3.60
2018-09-10T07:39:02.088Z,3.27
2018-09-10T07:41:29.200Z,3.80
2018-09-10T07:43:56.576Z,3.67
2018-09-10T07:46:23.766Z,3.83
2018-09-10T07:48:50.951Z,4.43
2018-09-10T07:51:17.987Z,3.90
2018-09-10T07:53:45.619Z,4.07
2018-09-10T07:56:12.826Z,3.70
2018-09-10T07:58:39.930Z,4.43
2018-09-10T08:01:07.029Z,4.60
2018-09-10T08:03:34.131Z,4.77
2018-09-10T08:06:01.341Z,4.80
2018-09-10T08:08:28.444Z,5.03
2018-09-10T08:10:55.549Z,4.67
2018-09-10T08:13:22.683Z,4.77
2018-09-10T08:15:49.872Z,5.80
2018-09-10T08:18:18.250Z,5.03
2018-09-10T08:20:45.359Z,6.43
2018-09-10T08:23:12.467Z,5.80
2018-09-10T08:25:39.618Z,5.57
2018-09-10T08:28:06.738Z,4.93
2018-09-10T08:30:33.880Z,5.03
2018-09-10T08:33:00.947Z,5.10
2018-09-10T08:35:28.085Z,5.00
2018-09-10T08:37:55.227Z,4.80
2018-09-10T08:40:22.420Z,5.00
2018-09-10T08:42:49.589Z,5.43
2018-09-10T08:45:16.718Z,5.40
2018-09-10T08:47:44.130Z,5.77
2018-09-10T08:50:11.230Z,5.27
2018-09-10T08:52:38.364Z,5.30
2018-09-10T08:55:06.629Z,5.60
2018-09-10T08:57:34.183Z,4.83
2018-09-10T09:00:01.289Z,5.50
2018-09-10T09:02:28.372Z,5.30
2018-09-10T09:04:55.466Z,5.30
2018-09-10T09:07:22.586Z,5.53
2018-09-10T09:09:49.700Z,5.57
2018-09-10T09:12:16.799Z,5.47
2018-09-10T09:14:44.070Z,5.47
2018-09-10T09:17:11.169Z,6.27
2018-09-10T09:19:38.286Z,5.13
2018-09-10T09:22:05.374Z,4.70
2018-09-10T09:24:32.502Z,5.10
2018-09-10T09:26:59.593Z,4.40
2018-09-10T09:29:26.709Z,4.87
2018-09-10T09:31:53.866Z,4.70
2018-09-10T09:34:20.989Z,5.07
2018-09-10T09:36:53.670Z,5.20
2018-09-10T09:39:26.709Z,5.10
2018-09-10T09:41:59.285Z,4.23
2018-09-10T09:44:31.887Z,4.17
2018-09-10T09:46:58.998Z,4.40
2018-09-10T09:49:26.104Z,4.10
2018-09-10T09:51:53.212Z,4.27
2018-09-10T09:54:20.325Z,4.77
2018-09-10T09:56:47.670Z,4.03
2018-09-10T09:59:14.768Z,4.90
2018-09-10T10:01:47.160Z,3.50
2018-09-10T10:04:14.340Z,4.10
2018-09-10T10:06:41.371Z,4.17
2018-09-10T10:09:09.194Z,4.10
2018-09-10T10:11:36.329Z,4.43
2018-09-10T10:14:03.776Z,4.50
2018-09-10T10:16:30.924Z,5.30
2018-09-10T10:18:57.977Z,5.47
2018-09-10T10:21:25.082Z,4.87
2018-09-10T10:23:52.181Z,4.50
2018-09-10T10:26:19.357Z,4.27
2018-09-10T10:28:46.504Z,3.80
2018-09-10T10:31:13.605Z,3.80
2018-09-10T10:33:40.703Z,4.03
2018-09-10T10:36:07.871Z,4.50
2018-09-10T10:38:34.949Z,3.70
2018-09-10T10:41:02.088Z,3.37
2018-09-10T10:43:29.191Z,3.57
2018-09-10T10:45:56.356Z,2.80
2018-09-10T10:48:23.461Z,3.50
2018-09-10T10:50:50.557Z,3.70
2018-09-10T10:53:17.686Z,3.40
2018-09-10T10:55:44.800Z,3.27
2018-09-10T10:58:12.325Z,3.67
2018-09-10T11:00:39.410Z,3.60
2018-09-10T11:03:06.535Z,3.60
2018-09-10T11:05:33.641Z,3.63
2018-09-10T11:08:00.738Z,3.70
2018-09-10T11:10:27.850Z,3.27
2018-09-10T11:12:54.962Z,2.90
2018-09-10T11:15:22.066Z,3.60
2018-09-10T11:17:49.169Z,3.23
2018-09-10T11:20:16.278Z,3.00
2018-09-10T11:22:43.403Z,2.90
2018-09-10T11:25:10.513Z,3.17
2018-09-10T11:27:37.671Z,2.80
2018-09-10T11:30:05.130Z,3.23
2018-09-10T11:32:32.365Z,3.13
2018-09-10T11:34:59.499Z,3.10
2018-09-10T11:37:26.618Z,3.57
2018-09-10T11:39:53.743Z,3.63
2018-09-10T11:42:20.846Z,3.67
2018-09-10T11:44:47.982Z,3.60
2018-09-10T11:47:15.092Z,3.23
2018-09-10T11:49:42.214Z,3.90
2018-09-10T11:52:09.332Z,4.70
2018-09-10T11:54:36.538Z,4.70
2018-09-10T11:57:03.809Z,4.90
2018-09-10T11:59:30.944Z,5.87
2018-09-10T12:01:58.136Z,5.70
2018-09-10T12:04:25.243Z,4.90
2018-09-10T12:06:52.349Z,4.60
2018-09-10T12:09:19.583Z,4.80
2018-09-10T12:11:46.760Z,4.77
2018-09-10T12:14:13.873Z,5.20
2018-09-10T12:16:41.023Z,4.83
2018-09-10T12:19:08.122Z,4.40
2018-09-10T12:21:35.290Z,4.93
2018-09-10T12:24:02.348Z,5.00
2018-09-10T12:26:29.499Z,4.50
2018-09-10T12:28:56.542Z,4.70
2018-09-10T12:31:23.654Z,4.60
2018-09-10T12:33:50.766Z,4.20
2018-09-10T12:36:18.244Z,4.23
2018-09-10T12:38:45.424Z,4.63
2018-09-10T12:41:12.522Z,4.67
2018-09-10T12:43:39.627Z,4.23
2018-09-10T12:46:06.738Z,4.17
2018-09-10T12:48:33.825Z,4.50
2018-09-10T12:51:01.005Z,4.73
2018-09-10T12:53:28.102Z,4.33
2018-09-10T12:55:55.214Z,3.90
2018-09-10T12:58:22.319Z,3.93
2018-09-10T13:00:49.438Z,3.97
2018-09-10T13:03:16.531Z,3.40
2018-09-10T13:05:43.625Z,3.37
2018-09-10T13:08:10.730Z,3.37
2018-09-10T13:10:37.867Z,3.03
2018-09-10T13:13:04.962Z,3.20
2018-09-10T13:15:32.057Z,2.87
2018-09-10T13:17:59.162Z,2.83
2018-09-10T13:20:26.504Z,3.20
2018-09-10T13:22:53.609Z,3.10
2018-09-10T13:25:20.738Z,2.87
2018-09-10T13:27:47.847Z,3.43
2018-09-10T13:30:14.937Z,3.13
2018-09-10T13:32:42.101Z,2.97
2018-09-10T13:35:09.196Z,3.43
2018-09-10T13:37:36.302Z,3.07
2018-09-10T13:40:03.409Z,3.20
2018-09-10T13:42:30.554Z,2.97
2018-09-10T13:44:57.662Z,2.90
2018-09-10T13:47:24.814Z,2.83
2018-09-10T13:49:51.921Z,3.20
2018-09-10T13:52:19.029Z,3.43
2018-09-10T13:54:46.134Z,3.50
2018-09-10T13:57:13.250Z,2.93
2018-09-10T13:59:40.466Z,3.53
2018-09-10T14:02:07.466Z,3.37
2018-09-10T14:04:34.570Z,3.37
2018-09-10T14:07:01.705Z,3.40
2018-09-10T14:09:28.806Z,3.17
2018-09-10T14:11:55.901Z,3.70
2018-09-10T14:14:23.042Z,3.20
2018-09-10T14:16:50.157Z,2.93
2018-09-10T14:19:17.346Z,3.30
2018-09-10T14:21:44.457Z,3.37
2018-09-10T14:24:11.558Z,3.30
2018-09-10T14:26:38.738Z,3.10
2018-09-10T14:29:05.841Z,3.50
2018-09-10T14:31:32.939Z,2.90
2018-09-10T14:34:00.074Z,3.13
2018-09-10T14:36:27.188Z,2.80
2018-09-10T14:38:54.308Z,3.10
2018-09-10T14:41:21.471Z,2.80
2018-09-10T14:43:48.573Z,3.13
2018-09-10T14:46:15.810Z,3.07
2018-09-10T14:48:42.933Z,2.80
2018-09-10T14:51:10.046Z,3.23
2018-09-10T14:53:37.233Z,2.60
2018-09-10T14:56:04.334Z,3.00
2018-09-10T14:58:31.495Z,2.70
2018-09-10T15:00:58.592Z,2.73
2018-09-10T15:03:25.713Z,3.40
2018-09-10T15:05:52.875Z,2.60
2018-09-10T15:08:19.910Z,2.83
2018-09-10T15:10:47.013Z,2.90
2018-09-10T15:13:14.109Z,3.00
2018-09-10T15:15:41.621Z,3.30
2018-09-10T15:18:08.723Z,3.03
2018-09-10T15:20:35.882Z,3.30
2018-09-10T15:23:02.978Z,3.30
2018-09-10T15:25:30.102Z,3.10
2018-09-10T15:27:57.230Z,2.87
2018-09-10T15:30:24.322Z,3.10
2018-09-10T15:32:51.425Z,3.10
2018-09-10T15:35:18.614Z,3.20
2018-09-10T15:37:45.730Z,3.13
2018-09-10T15:40:12.843Z,3.20
2018-09-10T15:42:39.949Z,3.00
2018-09-10T15:45:07.140Z,3.00
2018-09-10T15:47:34.202Z,3.10
2018-09-10T15:50:01.308Z,3.23
2018-09-10T15:52:28.511Z,3.00
2018-09-10T15:54:55.613Z,3.03
2018-09-10T15:57:22.721Z,3.30
2018-09-10T15:59:49.816Z,3.40
2018-09-10T16:02:16.949Z,3.00
2018-09-10T16:04:44.529Z,2.97
2018-09-10T16:07:11.740Z,3.23
2018-09-10T16:09:38.809Z,3.10
2018-09-10T16:12:05.937Z,3.67
2018-09-10T16:14:33.065Z,2.97
2018-09-10T16:17:00.245Z,2.90
2018-09-10T16:19:27.257Z,3.20
2018-09-10T16:21:54.422Z,3.20
2018-09-10T16:24:22.654Z,2.80
2018-09-10T16:26:49.759Z,3.20
2018-09-10T16:29:16.866Z,3.30
2018-09-10T16:31:43.961Z,3.20
2018-09-10T16:34:11.112Z,3.70
2018-09-10T16:36:38.220Z,3.13
2018-09-10T16:39:06.881Z,3.40
2018-09-10T16:41:33.999Z,3.00
2018-09-10T16:44:01.093Z,3.10
2018-09-10T16:46:28.208Z,2.97
2018-09-10T16:48:55.381Z,3.27
2018-09-10T16:51:22.489Z,2.83
2018-09-10T16:53:49.594Z,3.00
2018-09-10T16:56:16.697Z,2.90
2018-09-10T16:58:43.800Z,2.70
2018-09-10T17:01:10.909Z,3.00
2018-09-10T17:03:38.019Z,3.33
2018-09-10T17:06:05.194Z,2.90
2018-09-10T17:08:32.290Z,3.00
2018-09-10T17:10:59.717Z,2.80
2018-09-10T17:13:26.916Z,3.10
2018-09-10T17:15:54.033Z,3.07
2018-09-10T17:18:21.406Z,3.17
2018-09-10T17:20:48.609Z,3.00
2018-09-10T17:23:15.736Z,3.57
2018-09-10T17:25:42.933Z,3.30
2018-09-10T17:28:10.140Z,3.30
2018-09-10T17:30:37.277Z,3.20
2018-09-10T17:33:07.103Z,3.30
2018-09-10T17:35:34.316Z,3.33
2018-09-10T17:38:01.439Z,3.40
2018-09-10T17:40:28.635Z,2.80
2018-09-10T17:42:55.740Z,3.17
2018-09-10T17:45:22.963Z,3.13
2018-09-10T17:47:50.045Z,3.60
2018-09-10T17:50:17.161Z,3.50
2018-09-10T17:52:44.426Z,3.67
2018-09-10T17:55:11.552Z,3.00
2018-09-10T17:57:38.678Z,3.50
2018-09-10T18:00:05.838Z,3.70
2018-09-10T18:02:32.995Z,3.37
2018-09-10T18:05:00.103Z,3.83
2018-09-10T18:07:27.210Z,3.40
2018-09-10T18:09:54.343Z,3.60
2018-09-10T18:12:21.617Z,3.70
2018-09-10T18:14:48.806Z,3.63
2018-09-10T18:17:16.077Z,3.90
2018-09-10T18:19:43.178Z,3.87
2018-09-10T18:22:10.286Z,4.03
2018-09-10T18:24:37.387Z,3.37
2018-09-10T18:27:04.508Z,3.40
2018-09-10T18:29:31.614Z,3.63
2018-09-10T18:31:58.709Z,3.43
2018-09-10T18:34:25.809Z,4.10
2018-09-10T18:36:52.943Z,3.97
2018-09-10T18:39:20.019Z,3.53
2018-09-10T18:41:47.122Z,4.10
2018-09-10T18:44:14.305Z,3.90
2018-09-10T18:46:41.497Z,3.60
2018-09-10T18:49:08.850Z,3.80
2018-09-10T18:51:36.098Z,3.80
2018-09-10T18:54:03.230Z,3.87
2018-09-10T18:56:30.369Z,3.67
2018-09-10T18:58:57.469Z,3.63
2018-09-10T19:01:25.167Z,3.70
2018-09-10T19:03:52.154Z,3.70
2018-09-10T19:06:19.283Z,3.97
2018-09-10T19:08:46.463Z,3.90
2018-09-10T19:11:13.589Z,3.33
2018-09-10T19:13:40.686Z,3.70
2018-09-10T19:16:07.788Z,3.90
2018-09-10T19:18:38.913Z,4.03
2018-09-10T19:21:06.480Z,3.60
2018-09-10T19:23:34.206Z,3.50
2018-09-10T19:26:01.375Z,4.00
2018-09-10T19:28:28.534Z,3.70
2018-09-10T19:30:55.616Z,3.93
2018-09-10T19:33:22.724Z,4.00
2018-09-10T19:35:49.833Z,4.27
2018-09-10T19:38:16.946Z,4.47
2018-09-10T19:40:44.050Z,4.00
2018-09-10T19:43:11.170Z,3.83
2018-09-10T19:45:38.272Z,4.10
2018-09-10T19:48:05.387Z,3.93
2018-09-10T19:50:32.487Z,3.73
2018-09-10T19:52:59.589Z,4.00
2018-09-10T19:55:26.690Z,4.80
2018-09-10T19:57:53.880Z,3.97
2018-09-10T20:00:20.993Z,3.97
2018-09-10T20:02:48.141Z,4.10
2018-09-10T20:05:15.250Z,4.37
2018-09-10T20:07:42.489Z,4.10
2018-09-10T20:10:09.626Z,4.57
2018-09-10T20:12:36.741Z,4.47
2018-09-10T20:15:08.438Z,4.40
2018-09-10T20:17:36.491Z,4.10
2018-09-10T20:20:04.117Z,4.40
2018-09-10T20:22:31.262Z,4.30
2018-09-10T20:24:58.368Z,4.10
2018-09-10T20:27:25.491Z,3.80
2018-09-10T20:29:52.590Z,4.40
2018-09-10T20:32:19.697Z,4.30
2018-09-10T20:37:28.448Z,3.80
2018-09-10T20:39:55.611Z,3.90
2018-09-10T20:42:22.716Z,4.10
2018-09-10T20:44:49.828Z,3.80
2018-09-10T20:47:16.913Z,4.20
2018-09-10T20:49:44.023Z,3.90
2018-09-10T20:52:11.144Z,4.03
2018-09-10T20:54:38.277Z,4.20
2018-09-10T20:57:05.376Z,4.00
2018-09-10T20:59:32.486Z,4.70
2018-09-10T21:01:59.582Z,4.30
2018-09-10T21:04:26.678Z,4.20
2018-09-10T21:06:53.822Z,4.10
2018-09-10T21:09:20.913Z,4.30
2018-09-10T21:11:48.129Z,4.60
2018-09-10T21:14:15.306Z,3.97
2018-09-10T21:16:42.500Z,4.60
2018-09-10T21:19:09.602Z,4.20
2018-09-10T21:21:36.705Z,4.30
2018-09-10T21:24:03.811Z,4.77
2018-09-10T21:26:30.910Z,4.50
2018-09-10T21:28:58.014Z,4.40
2018-09-10T21:31:25.339Z,4.90
2018-09-10T21:33:52.445Z,4.40
2018-09-10T21:36:19.541Z,4.90
2018-09-10T21:38:46.655Z,4.60
2018-09-10T21:41:13.775Z,4.70
2018-09-10T21:43:41.130Z,4.80
2018-09-10T21:46:08.229Z,4.60
2018-09-10T21:48:35.317Z,5.27
2018-09-10T21:51:02.445Z,4.80
2018-09-10T21:53:29.606Z,4.97
2018-09-10T21:55:56.669Z,4.80
2018-09-10T21:58:23.770Z,5.00
2018-09-10T22:00:55.197Z,4.80
2018-09-10T22:03:22.286Z,4.80
2018-09-10T22:05:49.414Z,4.50
2018-09-10T22:08:16.511Z,4.37
2018-09-10T22:10:43.689Z,5.10
2018-09-10T22:13:11.116Z,4.77
2018-09-10T22:15:38.222Z,4.50
2018-09-10T22:18:05.403Z,5.00
2018-09-10T22:20:32.570Z,4.83
2018-09-10T22:22:59.727Z,4.90
2018-09-10T22:25:26.775Z,5.17
2018-09-10T22:27:53.952Z,4.53
2018-09-10T22:30:21.050Z,4.87
2018-09-10T22:32:48.162Z,5.30
2018-09-10T22:35:15.275Z,4.90
2018-09-10T22:37:42.377Z,4.53
2018-09-10T22:40:09.493Z,4.87
2018-09-10T22:42:36.589Z,4.80
2018-09-10T22:45:03.895Z,4.57
2018-09-10T22:47:30.998Z,5.10
2018-09-10T22:49:58.107Z,5.00
2018-09-10T22:52:25.317Z,5.20
2018-09-10T22:54:52.451Z,5.40
2018-09-10T22:57:19.547Z,5.37
2018-09-10T22:59:46.733Z,5.10
2018-09-10T23:02:13.825Z,5.20
2018-09-10T23:04:40.926Z,5.20
2018-09-10T23:07:08.128Z,5.20
2018-09-10T23:09:35.234Z,5.30
2018-09-10T23:12:02.398Z,5.10
2018-09-10T23:14:29.523Z,4.80
2018-09-10T23:16:56.774Z,5.20
2018-09-10T23:19:23.872Z,4.70
2018-09-10T23:21:50.956Z,4.93
2018-09-10T23:24:18.061Z,4.47
2018-09-10T23:26:45.155Z,4.60
2018-09-10T23:29:12.249Z,5.13
2018-09-10T23:31:39.346Z,4.67
2018-09-10T23:34:06.447Z,4.90
2018-09-10T23:36:33.554Z,4.97
2018-09-10T23:39:00.657Z,5.07
2018-09-10T23:41:27.749Z,4.87
2018-09-10T23:43:54.854Z,4.93
2018-09-10T23:46:21.952Z,4.70
2018-09-10T23:48:49.055Z,4.73
2018-09-10T23:51:16.149Z,5.13
2018-09-10T23:53:43.266Z,4.77
2018-09-10T23:56:10.368Z,4.80
2018-09-10T23:58:37.483Z,4.73
